Tiempo atmosférico en la estación meteorológica de La Riba de Escalote, Soria (1042 m.)



Fecha
DESCASC
Temp. máxima en grados centígrados (hora)
DESCASC
Temp. mínima en grados centígrados (hora)
DESCASC
Temp. media en grados centígrados
DESCASC
Racha de viento máxima en m/sg (hora)
DESCASC
Velocidad máxima media en intervalos de 10 minutos(hora)
DESCASC
Precipitaciones diarias en mm
DESCASC
Precipitaciones de 00:00 a 06:00 en mm
DESCASC
Precipitaciones de 06:00 a 12:00 en mm
DESCASC
Precipitaciones de 12:00 a 18:00 en mm
DESCASC
Precipitaciones de 18:00 a 24:00 en mm
DESCASC
23-06-2019 29.7 (17:10) 14.1 (02:00) 21.9 14.44 (16:00) 8.61 (15:00) 0 0 0 0 0
22-06-2019 27.1 (19:10) 7.5 (07:00) 17.3 13.33 (17:10) 7.78 (16:20) 0 0 0 0 0
21-06-2019 23.4 (18:20) 11.9 (07:00) 17.6 9.44 (21:10) 7.5 (21:20) 0 0 0 0 0
20-06-2019 25.2 (16:40) 12.5 (00:00) 18.9 9.72 (20:20) 6.39 (20:20) 0 0 0 0 0
19-06-2019 -- (--) -- (--) -- -- (--) -- (--) -- 0 0 -- 0
18-06-2019 27.1 (18:00) 14.3 (00:00) 20.7 17.22 (13:40) 11.94 (13:50) 0 0 0 0 0
17-06-2019 27.9 (17:50) 12.4 (00:00) 20.1 11.94 (16:30) 6.67 (19:40) 0 0 0 0 0
16-06-2019 26.6 (18:20) 5 (00:00) 15.8 10.56 (16:10) 6.39 (21:10) 0 0 0 0 0
15-06-2019 22.8 (18:10) 8.9 (00:00) 15.8 11.39 (03:40) 8.33 (03:40) 0 0 0 0 0
14-06-2019 22.5 (18:30) 10.2 (00:00) 16.3 17.78 (15:20) 11.67 (15:10) 0 0 0 0 0
13-06-2019 24 (18:20) 9.1 (00:00) 16.6 15.83 (14:30) 8.89 (17:50) 0 0 0 0 0
12-06-2019 19.9 (18:10) 0.8 (00:00) 10.3 11.39 (16:00) 5.83 (16:20) 0 0 0 0 0
11-06-2019 15.7 (18:20) 6.6 (00:00) 11.1 11.94 (16:30) 7.22 (14:50) 0.6 0 0.4 0.2 0
10-06-2019 19.4 (17:20) 7 (00:00) 13.2 13.89 (17:10) 8.89 (17:10) 0 0 0 0 0
09-06-2019 23.4 (15:10) 12.9 (00:00) 18.1 11.11 (09:10) 8.61 (07:20) 0 0 0 0 0
08-06-2019 23.1 (15:50) 1.7 (00:00) 12.4 13.06 (16:50) 8.06 (20:20) 0 0 0 0 0
07-06-2019 16.6 (19:00) 5.9 (00:00) 11.3 17.5 (02:10) 12.78 (02:10) 1.8 1.8 0 0 0
06-06-2019 20.2 (18:10) 6.1 (00:00) 13.2 20 (16:30) 13.61 (19:50) 0 0 0 0 0
05-06-2019 16.4 (18:40) 6.4 (00:00) 11.4 17.78 (10:10) 13.33 (10:20) 8.2 5.2 3 0 0
04-06-2019 25.5 (17:10) 10.6 (00:00) 18.1 17.5 (17:20) 11.11 (13:30) 0 0 0 0 0
03-06-2019 29.1 (16:10) 12.9 (00:00) 21 13.89 (15:00) 9.17 (16:20) 0 0 0 0 0
02-06-2019 -- (--) -- (--) -- -- (--) -- (--) -- 0 0 -- --
01-06-2019 29.7 (18:00) 10.3 (00:00) 20 10.83 (14:30) 6.39 (09:40) 0 0 0 0 0
31-05-2019 27.6 (17:10) 7 (00:00) 17.3 8.06 (21:20) 5.56 (21:40) 0 0 0 0 0
30-05-2019 25.5 (16:50) 6.3 (00:00) 15.9 10.83 (19:10) 8.06 (20:20) 0 0 0 0 0
29-05-2019 20.9 (16:40) 2.5 (00:00) 11.7 9.72 (16:10) 7.5 (20:20) 0 0 0 0 0
28-05-2019 20.1 (16:50) 3.5 (00:00) 11.8 12.78 (16:50) 8.33 (17:10) 0 0 0 0 0

Gráficas

Temp. máximas Temp. mínimas Temp. medias Precipitaciones Rachas de viento máximas Velocidades máximas media en intervalos de 10 minutos

Datos horarios

Fecha y hora oficial Temperatura (ºC) Velocidad del viento (km/h) Dirección del viento Racha (km/h) Dirección de racha Precipitación (mm) Presión (hPa) Tendencia (hPa) Humedad (%)
2019-06-26 23:00:00 27.9 18 Sur 22 Sur 0 -- -- 37
2019-06-26 22:00:00 29.4 13 Sudoeste 22 Sudoeste 0 -- -- 33
2019-06-26 21:00:00 31.3 17 Sudoeste 32 Sudoeste 0 -- -- 30
2019-06-26 20:00:00 33.5 22 Sur 35 Sudoeste 0 -- -- 27
2019-06-26 19:00:00 33.7 18 Sur 35 Sur 0 -- -- 27
2019-06-26 18:00:00 33.9 20 Sur 34 Sur 0 -- -- 26
2019-06-26 17:00:00 33.8 24 Sudoeste 42 Sur 0 -- -- 25
2019-06-26 16:00:00 32.9 24 Sur 42 Sudeste 0 -- -- 25
2019-06-26 15:00:00 32.1 22 Sur 40 Sudeste 0 -- -- 28
2019-06-26 14:00:00 30.5 22 Sudeste 35 Este 0 -- -- 33
2019-06-26 13:00:00 29.3 22 Sur 30 Sur 0 -- -- 39
2019-06-26 12:00:00 27.8 20 Sudeste 29 Sudeste 0 -- -- 42
2019-06-26 11:00:00 26.2 19 Sur 25 Sur 0 -- -- 46
2019-06-26 10:00:00 25.2 16 Sur 27 Sur 0 -- -- 50
2019-06-26 09:00:00 23.1 21 Sur 27 Sur 0 -- -- 54
2019-06-26 08:00:00 20.6 19 Sur 27 Sur 0 -- -- 61
2019-06-26 07:00:00 19.3 19 Sudoeste 21 Sudoeste 0 -- -- 64
2019-06-26 06:00:00 19 10 Sudeste 22 Sur 0 -- -- 61
2019-06-26 05:00:00 21.4 16 Sur 32 Sudoeste 0 -- -- 55
2019-06-26 04:00:00 22.3 22 Sur 29 Sur 0 -- -- 53
2019-06-26 03:00:00 22.8 19 Sudoeste 34 Sudoeste 0 -- -- 54
2019-06-26 02:00:00 20.9 6 Sur 23 Sudeste 0 -- -- 61
2019-06-26 01:00:00 22.6 18 Sudeste 25 Sudeste 0 -- -- 56
2019-06-26 00:00:00 23 9 Sudeste 15 Sudeste 0 -- -- 53
2019-06-25 23:00:00 24.7 9 Sudeste 16 Sudeste 0 -- -- 47
2019-06-25 22:00:00 26.8 13 Sur 29 Sudoeste 0 -- -- 34
2019-06-25 21:00:00 29.4 20 Sudoeste 34 Sudoeste 0 -- -- 29
2019-06-25 20:00:00 31.5 24 Sudoeste 41 Sudoeste 0 -- -- 26
2019-06-25 19:00:00 31.9 26 Sudoeste 42 Sudoeste 0 -- -- 25
2019-06-25 18:00:00 32.1 29 Sudoeste 50 Sudoeste 0 -- -- 25
2019-06-25 17:00:00 31.6 24 Sur 43 Sur 0 -- -- 26
2019-06-25 16:00:00 31.1 20 Sur 40 Sur 0 -- -- 30
2019-06-25 15:00:00 30.1 27 Sudoeste 48 Sudoeste 0 -- -- 33
2019-06-25 14:00:00 28.6 28 Sudoeste 46 Oeste 0 -- -- 34
2019-06-25 13:00:00 27.5 22 Sudoeste 37 Sudoeste 0 -- -- 37
2019-06-25 12:00:00 25.8 14 Sur 22 Sur 0 -- -- 43
2019-06-25 11:00:00 22.6 15 Sur 22 Sur 0 -- -- 51
2019-06-25 10:00:00 19.3 9 Sudeste 13 Sudeste 0 -- -- 64
2019-06-25 09:00:00 15 4 Este 9 Este 0 -- -- 79
2019-06-25 08:00:00 12.2 0 Calma 6 Sudeste 0 -- -- 86
2019-06-25 07:00:00 11.7 3 Sudeste 4 Sudeste 0 -- -- 86
2019-06-25 06:00:00 12.2 0 Calma 9 Este 0 -- -- 86
2019-06-25 05:00:00 13.3 3 Sudeste 6 Oeste 0 -- -- 82
2019-06-25 04:00:00 14.1 6 Oeste 10 Oeste 0 -- -- 80
2019-06-25 03:00:00 14.7 9 Oeste 12 Oeste 0 -- -- 79
2019-06-25 02:00:00 15.2 9 Oeste 21 Noroeste 0 -- -- 77
2019-06-25 01:00:00 16 11 Noroeste 36 Oeste 0 -- -- 74
2019-06-25 00:00:00 17.4 17 Noroeste 34 Noroeste 0 -- -- 68
2019-06-24 23:00:00 19.1 23 Noroeste 47 Noroeste 0 -- -- 60
2019-06-24 22:00:00 24.8 11 Oeste 17 Oeste 0 -- -- 38
2019-06-24 21:00:00 25.7 15 Oeste 30 Oeste 0 -- -- 36
2019-06-24 20:00:00 26.6 23 Oeste 33 Oeste 0 -- -- 34
2019-06-24 19:00:00 28.1 19 Sudoeste 32 Sur 0 -- -- 32
2019-06-24 18:00:00 28.9 18 Sudoeste 32 Sudoeste 0 -- -- 32
2019-06-24 17:00:00 27.1 23 Sur 36 Sur 0 -- -- 35
2019-06-24 16:00:00 26.3 17 Sur 25 Sur 0 -- -- 36
2019-06-24 15:00:00 24.4 17 Sur 29 Sur 0 -- -- 37
2019-06-24 14:00:00 23.3 18 Sur 28 Sudoeste 0 -- -- 39
2019-06-24 13:00:00 22.1 19 Sur 35 Sur 0 -- -- 41
2019-06-24 12:00:00 21.5 18 Sur 31 Sudoeste 0 -- -- 41
2019-06-24 11:00:00 20.6 18 Sudoeste 32 Sudoeste 0 -- -- 42
2019-06-24 10:00:00 20.2 14 Sur 31 Sur 0 -- -- 41
2019-06-24 09:00:00 19.6 20 Sur 39 Sudoeste 0 -- -- 41
2019-06-24 08:00:00 19.5 32 Sudoeste 47 Sudoeste 0 -- -- 39
2019-06-24 07:00:00 19.4 30 Sudoeste 45 Sudoeste 0 -- -- 37
2019-06-24 06:00:00 19.8 30 Sudoeste 45 Sudoeste 0 -- -- 35
2019-06-24 05:00:00 20.5 39 Sudoeste 53 Sudoeste 0 -- -- 33
2019-06-24 04:00:00 21.2 28 Sudoeste 37 Sudoeste 0 -- -- 39
2019-06-24 03:00:00 21.7 20 Sur 28 Sur 0 -- -- 42
2019-06-24 02:00:00 21 14 Sur 18 Sur 0 -- -- 43
2019-06-24 01:00:00 19.8 6 Sudeste 13 Sur 0 -- -- 44
2019-06-24 00:00:00 20.7 7 Sudeste 9 Sudeste 0 -- -- 42
2019-06-23 23:00:00 23.2 2 Sudeste 4 Este 0 -- -- 36
2019-06-23 22:00:00 25.6 0 Calma 9 Oeste 0 -- -- 31
2019-06-23 21:00:00 27.2 6 Oeste 23 Sudoeste 0 -- -- 28
2019-06-23 20:00:00 28.1 14 Sudoeste 29 Sudoeste 0 -- -- 27
2019-06-23 19:00:00 28.7 16 Oeste 35 Sudoeste 0 -- -- 27
2019-06-23 18:00:00 29.3 19 Sudoeste 41 Sudoeste 0 -- -- 26
2019-06-23 17:00:00 29.5 21 Sur 43 Sudoeste 0 -- -- 27
2019-06-23 16:00:00 28.9 29 Sudoeste 52 Sudoeste 0 -- -- 27
2019-06-23 15:00:00 27.5 31 Sudoeste 46 Sudoeste 0 -- -- 31
2019-06-23 14:00:00 26.7 26 Sudoeste 45 Sudoeste 0 -- -- 33
2019-06-23 13:00:00 25.9 27 Sudoeste 39 Sudoeste 0 -- -- 34
2019-06-23 12:00:00 24.1 20 Sudoeste 32 Sudoeste 0 -- -- 43
2019-06-23 11:00:00 23 15 Sur 26 Sur 0 -- -- 49
2019-06-23 10:00:00 21.5 19 Sur 34 Sur 0 -- -- 55
2019-06-23 09:00:00 19.9 24 Sur 39 Sudoeste 0 -- -- 59
2019-06-23 08:00:00 18.8 22 Sudoeste 29 Sudoeste 0 -- -- 63
2019-06-23 07:00:00 17.2 12 Sudoeste 35 Sur 0 -- -- 65
2019-06-23 06:00:00 17.8 18 Sudoeste 25 Sudoeste 0 -- -- 65
2019-06-23 05:00:00 17.7 18 Sudoeste 24 Sudoeste 0 -- -- 62
2019-06-23 04:00:00 18 21 Sudoeste 31 Sur 0 -- -- 55
2019-06-23 03:00:00 18 23 Sur 29 Sur 0 -- -- 46
2019-06-23 02:00:00 14.1 9 Sudeste 18 Sudeste 0 -- -- 55
2019-06-23 01:00:00 16.4 0 Calma 4 Sudeste 0 -- -- 48
2019-06-23 00:00:00 18.2 4 Sudeste 10 Sudeste 0 -- -- 43
2019-06-22 23:00:00 20.4 2 Noroeste 8 Oeste 0 -- -- 38
2019-06-22 22:00:00 23.3 8 Oeste 27 Sudoeste 0 -- -- 32
2019-06-22 21:00:00 26 15 Sudoeste 31 Sudoeste 0 -- -- 29
2019-06-22 20:00:00 26 15 Sudoeste 32 Sudoeste 0 -- -- 31
2019-06-22 19:00:00 26.9 21 Sudoeste 40 Sudoeste 0 -- -- 30
2019-06-22 18:00:00 26.4 19 Sudoeste 48 Sudoeste 0 -- -- 30
2019-06-22 17:00:00 27 26 Sur 44 Sudoeste 0 -- -- 29
2019-06-22 16:00:00 26.9 22 Sur 38 Sudoeste 0 -- -- 33
2019-06-22 15:00:00 26.2 21 Sudoeste 39 Sur 0 -- -- 34
2019-06-22 14:00:00 24.8 20 Sudoeste 36 Sudoeste 0 -- -- 39
2019-06-22 13:00:00 24.1 21 Sudoeste 36 Sur 0 -- -- 40
2019-06-22 12:00:00 21.9 18 Sudoeste 32 Sur 0 -- -- 54
2019-06-22 11:00:00 20.1 22 Sudoeste 32 Sudoeste 0 -- -- 61
2019-06-22 10:00:00 18.2 21 Sudoeste 29 Sudoeste 0 -- -- 68
2019-06-22 09:00:00 14.2 3 Este 9 Este 0 -- -- 74
2019-06-22 08:00:00 10 4 Este 7 Sudeste 0 -- -- 85
2019-06-22 07:00:00 7.5 4 Sudeste 6 Este 0 -- -- 88
2019-06-22 06:00:00 7.9 2 Este 4 Este 0 -- -- 87
2019-06-22 05:00:00 9 0 Calma 4 Este 0 -- -- 86
2019-06-22 04:00:00 9.8 0 Calma 3 Sudeste 0 -- -- 83
2019-06-22 03:00:00 10.6 0 Calma 9 Sudeste 0 -- -- 80
2019-06-22 02:00:00 12.2 4 Este 10 Este 0 -- -- 76
2019-06-22 01:00:00 13.2 2 Nordeste 13 Este 0 -- -- 72
2019-06-22 00:00:00 14 8 Este 17 Este 0 -- -- 70
2019-06-21 23:00:00 14.9 7 Nordeste 24 Este 0 -- -- 67
2019-06-21 22:00:00 16.6 19 Este 34 Este 0 -- -- 62
2019-06-21 21:00:00 19 22 Este 32 Este 0 -- -- 55
2019-06-21 20:00:00 20.9 14 Noroeste 25 Noroeste 0 -- -- 44
2019-06-21 19:00:00 21.7 8 Norte 28 Noroeste 0 -- -- 39
2019-06-21 18:00:00 22.7 18 Noroeste 31 Noroeste 0 -- -- 37
2019-06-21 17:00:00 22.7 13 Noroeste 27 Noroeste 0 -- -- 38
2019-06-21 16:00:00 20.8 6 Noroeste 21 Oeste 0 -- -- 49
2019-06-21 15:00:00 20 13 Noroeste 29 Noroeste 0 -- -- 54
2019-06-21 14:00:00 20.5 17 Norte 28 Norte 0 -- -- 55
2019-06-21 13:00:00 19.3 13 Noroeste 23 Nordeste 0 -- -- 58
2019-06-21 12:00:00 19.5 12 Nordeste 21 Nordeste 0 -- -- 57
2019-06-21 11:00:00 17.5 9 Nordeste 19 Nordeste 0 -- -- 64
2019-06-21 10:00:00 17.3 8 Nordeste 17 Nordeste 0 -- -- 67
2019-06-21 09:00:00 15.4 6 Nordeste 13 Nordeste 0 -- -- 77
2019-06-21 08:00:00 13.4 0 Calma 3 Norte 0 -- -- 89
2019-06-21 07:00:00 11.9 3 Este 6 Norte 0 -- -- 90
2019-06-21 06:00:00 12.5 5 Norte 9 Norte 0 -- -- 88
2019-06-21 05:00:00 13.3 6 Norte 9 Norte 0 -- -- 87
2019-06-21 04:00:00 13.2 6 Norte 9 Norte 0 -- -- 85
2019-06-21 03:00:00 13.1 4 Norte 13 Nordeste 0 -- -- 83
2019-06-21 02:00:00 13.7 5 Nordeste 22 Este 0 -- -- 80
2019-06-21 01:00:00 13.6 12 Nordeste 18 Este 0 -- -- 80
2019-06-21 00:00:00 13.5 4 Norte 10 Norte 0 -- -- 80
2019-06-20 23:00:00 14.1 6 Norte 13 Norte 0 -- -- 78
2019-06-20 22:00:00 15.3 7 Norte 22 Norte 0 -- -- 74
2019-06-20 21:00:00 17.3 9 Noroeste 35 Norte 0 -- -- 67
2019-06-20 20:00:00 20.2 9 Norte 26 Nordeste 0 -- -- 58
2019-06-20 19:00:00 23.6 6 Este 21 Noroeste 0 -- -- 41
2019-06-20 18:00:00 24.5 10 Noroeste 23 Noroeste 0 -- -- 39
2019-06-20 17:00:00 24.2 10 Noroeste 34 Oeste 0 -- -- 41
2019-06-20 16:00:00 24.4 18 Sur 29 Sudoeste 0 -- -- 36
2019-06-20 15:00:00 23.4 13 Este 33 Este 0 -- -- 39
2019-06-20 14:00:00 23.2 7 Sur 21 Este 0 -- -- 42
2019-06-20 13:00:00 22 8 Sudeste 18 Sudeste 0 -- -- 45
2019-06-20 12:00:00 21.5 10 Nordeste 21 Nordeste 0 -- -- 46
2019-06-20 11:00:00 19.7 8 Norte 15 Nordeste 0 -- -- 55
2019-06-20 10:00:00 18.5 8 Nordeste 12 Nordeste 0 -- -- 61
2019-06-20 09:00:00 15.6 3 Noroeste 5 Noroeste 0 -- -- 73
2019-06-20 08:00:00 13.6 2 Oeste 4 Oeste 0 -- -- 78
2019-06-20 07:00:00 12.9 0 Calma 3 Noroeste 0 -- -- 77
2019-06-20 06:00:00 12.8 2 Noroeste 11 Noroeste 0 -- -- 77
2019-06-20 05:00:00 13.3 0 Calma 8 Oeste 0 -- -- 73
2019-06-20 04:00:00 13.5 4 Noroeste 12 Oeste 0 -- -- 73
2019-06-20 03:00:00 14 5 Noroeste 14 Oeste 0 -- -- 70
2019-06-20 02:00:00 14.8 9 Oeste 15 Oeste 0 -- -- 66
2019-06-20 01:00:00 15.8 10 Oeste 14 Oeste 0 -- -- 65
2019-06-20 00:00:00 17.1 8 Oeste 22 Oeste 0 -- -- 63
2019-06-19 23:00:00 18.4 9 Noroeste 16 Oeste 0 -- -- 59
2019-06-19 22:00:00 18.5 3 Norte 42 Noroeste 0 -- -- 57
2019-06-19 21:00:00 22.2 17 Oeste 34 Sudoeste 0 -- -- 47
2019-06-19 20:00:00 22.6 14 Oeste 28 Oeste 0 -- -- 44
2019-06-19 19:00:00 23.1 22 Oeste 31 Sudoeste 0 -- -- 42
2019-06-19 18:00:00 24.1 17 Sudoeste 39 Sudoeste 0 -- -- 39
2019-06-19 17:00:00 23.9 23 Sudoeste 40 Sudoeste 0 -- -- 40
2019-06-19 16:00:00 23.5 28 Sur -- -- -- -- -- 42
2019-06-19 15:00:00 -- -- -- -- -- -- -- -- --
2019-06-19 14:00:00 -- -- -- -- -- -- -- -- --
2019-06-19 13:00:00 -- -- -- -- -- -- -- -- --
2019-06-19 12:00:00 19.9 11 Norte 21 Nordeste 0 -- -- 55
2019-06-19 11:00:00 19.3 4 Este 15 Noroeste 0 -- -- 56
2019-06-19 10:00:00 17.8 5 Oeste 11 Oeste 0 -- -- 63
2019-06-19 09:00:00 14.4 3 Sudeste 4 Este 0 -- -- 67
2019-06-19 08:00:00 12 2 Sudeste 8 Sudeste 0 -- -- 71
2019-06-19 07:00:00 9.6 4 Sudeste 6 Sudeste 0 -- -- 72
2019-06-19 06:00:00 9.6 4 Sudeste 7 Sudeste 0 -- -- 67
2019-06-19 05:00:00 10.1 5 Sudeste 8 Sudeste 0 -- -- 65
2019-06-19 04:00:00 11.5 3 Sudoeste 9 Sudeste 0 -- -- 62
2019-06-19 03:00:00 12.3 2 Este 9 Sudeste 0 -- -- 57
2019-06-19 02:00:00 14.2 3 Sur 7 Sudoeste 0 -- -- 54
2019-06-19 01:00:00 16.2 0 Calma 6 Este 0 -- -- 47
2019-06-19 00:00:00 17.1 2 Este 17 Oeste 0 -- -- 34
2019-06-18 23:00:00 18.5 10 Oeste 29 Oeste 0 -- -- 27
2019-06-18 22:00:00 22 20 Oeste 38 Oeste 0 -- -- 21
2019-06-18 21:00:00 24.4 23 Oeste 55 Sudoeste 0 -- -- 18
2019-06-18 20:00:00 25.6 32 Sudoeste 56 Sudoeste 0 -- -- 16
2019-06-18 19:00:00 26.5 31 Sudoeste 55 Sudoeste 0 -- -- 17
2019-06-18 18:00:00 27.1 28 Sudoeste 54 Oeste 0 -- -- 18
2019-06-18 17:00:00 26.5 32 Sudoeste 57 Sudoeste 0 -- -- 17
2019-06-18 16:00:00 26 38 Sudoeste 62 Sudoeste 0 -- -- 17
2019-06-18 15:00:00 26 37 Sudoeste 59 Sudoeste 0 -- -- 16
2019-06-18 14:00:00 25.1 40 Sudoeste 62 Sudoeste 0 -- -- 23
2019-06-18 13:00:00 24.9 36 Sudoeste 56 Sudoeste 0 -- -- 29
2019-06-18 12:00:00 23.5 31 Sudoeste 53 Sudoeste 0 -- -- 30
2019-06-18 11:00:00 22.6 24 Sudoeste 40 Sudoeste 0 -- -- 28
2019-06-18 10:00:00 19.4 22 Sur 32 Sur 0 -- -- 39
2019-06-18 09:00:00 17.5 17 Sudeste 23 Sudeste 0 -- -- 48
2019-06-18 08:00:00 16.8 15 Sur 26 Sur 0 -- -- 47
2019-06-18 07:00:00 16.6 20 Sudoeste 26 Sudoeste 0 -- -- 41
2019-06-18 06:00:00 14.4 8 Sudeste 12 Sudeste 0 -- -- 44
2019-06-18 05:00:00 15.5 8 Este 17 Sur 0 -- -- 42
2019-06-18 04:00:00 16.7 5 Sudeste 12 Sudeste 0 -- -- 38
2019-06-18 03:00:00 17.7 10 Oeste 13 Oeste 0 -- -- 35
2019-06-18 02:00:00 19.3 4 Norte 9 Oeste 0 -- -- 32
2019-06-18 01:00:00 20.4 3 Oeste 25 Noroeste 0 -- -- 29
2019-06-18 00:00:00 20.1 5 Este 9 Este 0 -- -- 31
2019-06-17 23:00:00 21.6 9 Oeste 12 Oeste 0 -- -- 26
2019-06-17 22:00:00 23 6 Oeste 17 Oeste 0 -- -- 25
2019-06-17 21:00:00 24.9 13 Oeste 32 Sudoeste 0 -- -- 21
2019-06-17 20:00:00 26 17 Sudoeste 34 Sudoeste 0 -- -- 21
2019-06-17 19:00:00 27.8 17 Sudoeste 37 Oeste 0 -- -- 20
2019-06-17 18:00:00 27.6 21 Sudoeste 39 Sudoeste 0 -- -- 21
2019-06-17 17:00:00 27.6 19 Sudoeste 43 Sudoeste 0 -- -- 20
2019-06-17 16:00:00 27.3 18 Sudoeste 37 Sudoeste 0 -- -- 22
2019-06-17 15:00:00 26.8 20 Sur 37 Sur 0 -- -- 21
2019-06-17 14:00:00 26.3 20 Sudoeste 37 Sudoeste 0 -- -- 20
2019-06-17 13:00:00 25.6 15 Sur 30 Sur 0 -- -- 26
2019-06-17 12:00:00 24.7 10 Sur 22 Sur 0 -- -- 27
2019-06-17 11:00:00 23 8 Sur 18 Sur 0 -- -- 35
2019-06-17 10:00:00 21.2 12 Sur 22 Sur 0 -- -- 43
2019-06-17 09:00:00 19.2 8 Este 12 Sudeste 0 -- -- 45
2019-06-17 08:00:00 14.7 6 Sudeste 12 Sudeste 0 -- -- 49
2019-06-17 07:00:00 12.8 6 Sudeste 9 Sudeste 0 -- -- 50
2019-06-17 06:00:00 12.4 8 Sudeste 11 Este 0 -- -- 49
2019-06-17 05:00:00 13.6 7 Este 12 Este 0 -- -- 44
2019-06-17 04:00:00 15.3 0 Calma 11 Sudeste 0 -- -- 38
2019-06-17 03:00:00 16.6 3 Oeste 22 Sur 0 -- -- 35
2019-06-17 02:00:00 15.5 5 Sudeste 18 Norte 0 -- -- 35
2019-06-17 01:00:00 15.8 8 Sur 15 Sudeste 0 -- -- 34
2019-06-17 00:00:00 17.2 3 Este 21 Sudoeste 0 -- -- 32
2019-06-16 23:00:00 20 10 Oeste 27 Sudoeste 0 -- -- 26
2019-06-16 22:00:00 22.1 19 Sudoeste 32 Sudoeste 0 -- -- 23
2019-06-16 21:00:00 23.8 20 Sudoeste 34 Sudoeste 0 -- -- 23
2019-06-16 20:00:00 25.4 21 Sudoeste 32 Sudoeste 0 -- -- 24
2019-06-16 19:00:00 25.9 19 Sudoeste 33 Sudoeste 0 -- -- 22
2019-06-16 18:00:00 26.4 14 Sudoeste 33 Sudoeste 0 -- -- 24
2019-06-16 17:00:00 25.4 21 Sudoeste 38 Oeste 0 -- -- 24
2019-06-16 16:00:00 25.3 19 Sudoeste 36 Sur 0 -- -- 23
2019-06-16 15:00:00 24.2 18 Sudoeste 30 Sur 0 -- -- 23
2019-06-16 14:00:00 23.8 18 Sudoeste 35 Sur 0 -- -- 25
2019-06-16 13:00:00 22.7 13 Sur 30 Sur 0 -- -- 30
2019-06-16 12:00:00 21.5 13 Sur 27 Sur 0 -- -- 32
2019-06-16 11:00:00 19.8 10 Sur 22 Sur 0 -- -- 38
2019-06-16 10:00:00 17.3 13 Sudeste 23 Este 0 -- -- 48
2019-06-16 09:00:00 12.5 4 Este 7 Este 0 -- -- 67
2019-06-16 08:00:00 7.8 2 Sudeste 4 Este 0 -- -- 80
2019-06-16 07:00:00 5.2 3 Oeste 6 Oeste 0 -- -- 87
2019-06-16 06:00:00 5.9 0 Calma 4 Este 0 -- -- 82
2019-06-16 05:00:00 6.8 0 Calma 3 Este 0 -- -- 78
2019-06-16 04:00:00 8.2 0 Calma 3 Oeste 0 -- -- 75
2019-06-16 03:00:00 10 0 Calma 7 Sudeste 0 -- -- 69
2019-06-16 02:00:00 10.9 7 Sudeste 15 Sudeste 0 -- -- 67
2019-06-16 01:00:00 12.2 4 Nordeste 13 Este 0 -- -- 64
2019-06-16 00:00:00 13.1 4 Nordeste 36 Este 0 -- -- 61
2019-06-15 23:00:00 14.5 15 Sudeste 23 Este 0 -- -- 55
2019-06-15 22:00:00 17.5 3 Norte 14 Norte 0 -- -- 35
2019-06-15 21:00:00 20.4 10 Norte 19 Norte 0 -- -- 31
2019-06-15 20:00:00 21.6 13 Noroeste 26 Noroeste 0 -- -- 29
2019-06-15 19:00:00 22 17 Norte 27 Noroeste 0 -- -- 29
2019-06-15 18:00:00 22.3 5 Sudoeste 36 Sudeste 0 -- -- 33
2019-06-15 17:00:00 21.8 6 Sur 22 Oeste 0 -- -- 33
2019-06-15 16:00:00 20.2 6 Este 22 Oeste 0 -- -- 34
2019-06-15 15:00:00 19.2 14 Oeste 26 Sudoeste 0 -- -- 36
2019-06-15 14:00:00 18.2 9 Noroeste 28 Oeste 0 -- -- 39
2019-06-15 13:00:00 17 10 Noroeste 31 Oeste 0 -- -- 42
2019-06-15 12:00:00 15.1 13 Noroeste 26 Oeste 0 -- -- 46
2019-06-15 11:00:00 14.2 14 Noroeste 27 Oeste 0 -- -- 50
2019-06-15 10:00:00 12.7 10 Noroeste 28 Noroeste 0 -- -- 58
2019-06-15 09:00:00 10.8 14 Noroeste 26 Noroeste 0 -- -- 65
2019-06-15 08:00:00 9.4 9 Noroeste 33 Oeste 0 -- -- 69
2019-06-15 07:00:00 8.9 20 Noroeste 33 Noroeste 0 -- -- 69
2019-06-15 06:00:00 9.5 19 Noroeste 32 Noroeste 0 -- -- 66
2019-06-15 05:00:00 9.6 15 Noroeste 36 Oeste 0 -- -- 63
2019-06-15 04:00:00 10.5 25 Noroeste 41 Noroeste 0 -- -- 55
2019-06-15 03:00:00 11 19 Noroeste 32 Noroeste 0 -- -- 51
2019-06-15 02:00:00 12.3 24 Noroeste 31 Noroeste 0 -- -- 48
2019-06-15 01:00:00 11.9 7 Noroeste 12 Noroeste 0 -- -- 49
2019-06-15 00:00:00 14.1 12 Oeste 44 Sudoeste 0 -- -- 40
2019-06-14 23:00:00 16.3 21 Oeste 40 Sudoeste 0 -- -- 33
2019-06-14 22:00:00 17.5 29 Sudoeste 48 Sudoeste 0 -- -- 30
2019-06-14 21:00:00 19.2 32 Sudoeste 46 Sudoeste 0 -- -- 28
2019-06-14 20:00:00 21.2 31 Sudoeste 51 Sudoeste 0 -- -- 26
2019-06-14 19:00:00 21.8 33 Sudoeste 52 Sudoeste 0 -- -- 23
2019-06-14 18:00:00 22.1 34 Sudoeste 53 Sudoeste 0 -- -- 22
2019-06-14 17:00:00 22.2 35 Sudoeste 55 Sudoeste 0 -- -- 22
2019-06-14 16:00:00 22.1 37 Sudoeste 64 Sudoeste 0 -- -- 24
2019-06-14 15:00:00 21.4 37 Sudoeste 58 Sudoeste 0 -- -- 28
2019-06-14 14:00:00 21.2 31 Sudoeste 52 Oeste 0 -- -- 31
2019-06-14 13:00:00 20.7 28 Sudoeste 45 Sudoeste 0 -- -- 37
2019-06-14 12:00:00 20.2 20 Sudoeste 37 Sudoeste 0 -- -- 41
2019-06-14 11:00:00 19 27 Sudoeste 37 Sudoeste 0 -- -- 41
2019-06-14 10:00:00 17.5 25 Sudoeste 34 Sudoeste 0 -- -- 50
2019-06-14 09:00:00 15.1 9 Oeste 21 Sudoeste 0 -- -- 67
2019-06-14 08:00:00 13.2 4 Sudoeste 12 Oeste 0 -- -- 61
2019-06-14 07:00:00 12.6 4 Oeste 22 Sudoeste 0 -- -- 54
2019-06-14 06:00:00 10.2 6 Sudeste 10 Este 0 -- -- 51
2019-06-14 05:00:00 10.7 0 Calma 11 Oeste 0 -- -- 50
2019-06-14 04:00:00 11.9 8 Sur 17 Sur 0 -- -- 46
2019-06-14 03:00:00 11.6 3 Sudeste 13 Oeste 0 -- -- 48
2019-06-14 02:00:00 12.2 5 Noroeste 11 Oeste 0 -- -- 48
2019-06-14 01:00:00 13.3 5 Sudeste 10 Oeste 0 -- -- 44
2019-06-14 00:00:00 15.2 5 Este 9 Sudoeste 0 -- -- 39
2019-06-13 23:00:00 16.8 5 Sudeste 14 Oeste 0 -- -- 35
2019-06-13 22:00:00 19.3 9 Oeste 19 Sudoeste 0 -- -- 32
2019-06-13 21:00:00 22.1 15 Sudoeste 33 Sur 0 -- -- 33
2019-06-13 20:00:00 23.5 20 Sudoeste 43 Sudoeste 0 -- -- 27
2019-06-13 19:00:00 22.3 27 Sur 44 Sur 0 -- -- 38
2019-06-13 18:00:00 23.9 22 Sudoeste 46 Sudoeste 0 -- -- 31
2019-06-13 17:00:00 23 24 Sudoeste 53 Sudoeste 0 -- -- 32
2019-06-13 16:00:00 22.7 31 Sudoeste 44 Sudoeste 0 -- -- 37
2019-06-13 15:00:00 22.2 23 Sur 57 Sudoeste 0 -- -- 37
2019-06-13 14:00:00 20.6 28 Sudoeste 49 Sudoeste 0 -- -- 41
2019-06-13 13:00:00 20.1 22 Sudoeste 46 Sur 0 -- -- 43
2019-06-13 12:00:00 17.8 22 Sudoeste 36 Sudoeste 0 -- -- 55
2019-06-13 11:00:00 16.5 17 Sudoeste 33 Sur 0 -- -- 62
2019-06-13 10:00:00 13.8 11 Sur 26 Sur 0 -- -- 72
2019-06-13 09:00:00 12.5 18 Sudoeste 33 Sudoeste 0 -- -- 77
2019-06-13 08:00:00 11.6 16 Sudoeste 26 Sur 0 -- -- 79
2019-06-13 07:00:00 9.6 21 Sur 27 Sur 0 -- -- 81
2019-06-13 06:00:00 10.1 17 Sur 25 Sur 0 -- -- 76
2019-06-13 05:00:00 10.5 19 Sur 24 Sur 0 -- -- 75
2019-06-13 04:00:00 11.1 14 Sur 24 Sur 0 -- -- 70
2019-06-13 03:00:00 11.3 16 Sudoeste 21 Sudoeste 0 -- -- 61
2019-06-13 02:00:00 10.1 17 Sudeste 39 Sudeste 0 -- -- 55
2019-06-13 01:00:00 10.3 13 Sudeste 22 Sudeste 0 -- -- 54
2019-06-13 00:00:00 10.7 17 Sudeste 20 Sudeste 0 -- -- 44
2019-06-12 23:00:00 12.8 4 Sudeste 14 Sur 0 -- -- 37
2019-06-12 22:00:00 16 14 Sur 15 Sudoeste 0 -- -- 29
2019-06-12 21:00:00 17.7 11 Sudoeste 27 Sudoeste 0 -- -- 27
2019-06-12 20:00:00 18 9 Sudoeste 28 Sudoeste 0 -- -- 27
2019-06-12 19:00:00 19 20 Sudoeste 30 Sudoeste 0 -- -- 25
2019-06-12 18:00:00 19.2 8 Oeste 31 Sudoeste 0 -- -- 27
2019-06-12 17:00:00 18.6 14 Oeste 34 Oeste 0 -- -- 30
2019-06-12 16:00:00 17.5 20 Sudoeste 41 Sudoeste 0 -- -- 33
2019-06-12 15:00:00 16.5 15 Oeste 27 Oeste 0 -- -- 39
2019-06-12 14:00:00 14.5 5 Noroeste 18 Nordeste 0 -- -- 45
2019-06-12 13:00:00 13.8 3 Sudoeste 24 Sudoeste 0 -- -- 46
2019-06-12 12:00:00 13.2 6 Sur 14 Sudoeste 0 -- -- 51
2019-06-12 11:00:00 12.2 6 Noroeste 14 Oeste 0 -- -- 53
2019-06-12 10:00:00 9.6 8 Noroeste 17 Noroeste 0 -- -- 62
2019-06-12 09:00:00 6.9 3 Norte 5 Norte 0 -- -- 77
2019-06-12 08:00:00 3.7 0 Calma 5 Noroeste 0 -- -- 88
2019-06-12 07:00:00 0.9 2 Este 4 Sudeste 0 -- -- 90
2019-06-12 06:00:00 1.1 3 Sudeste 8 Este 0 -- -- 90
2019-06-12 05:00:00 1.6 0 Calma 6 Sudeste 0 -- -- 88
2019-06-12 04:00:00 2.4 5 Sudeste 6 Sudeste 0 -- -- 86
2019-06-12 03:00:00 3.4 2 Sudeste 4 Sudeste 0 -- -- 83
2019-06-12 02:00:00 4.7 0 Calma 10 Sudeste 0 -- -- 79
2019-06-12 01:00:00 6 6 Sudeste 15 Sudeste 0 -- -- 75
2019-06-12 00:00:00 6.7 8 Sudeste 15 Sudeste 0 -- -- 73
2019-06-11 23:00:00 8.3 4 Sudeste 10 Este 0 -- -- 65
2019-06-11 22:00:00 10.4 8 Nordeste 24 Norte 0 -- -- 50
2019-06-11 21:00:00 13.6 11 Norte 27 Norte 0 -- -- 39
2019-06-11 20:00:00 14.7 16 Norte 36 Noroeste 0 -- -- 35
2019-06-11 19:00:00 15 22 Noroeste 34 Noroeste 0 -- -- 33
2019-06-11 18:00:00 15.5 18 Noroeste 42 Noroeste 0 -- -- 34
2019-06-11 17:00:00 15 19 Noroeste 43 Noroeste 0 -- -- 33
2019-06-11 16:00:00 14.2 24 Noroeste 37 Noroeste 0 -- -- 37
2019-06-11 15:00:00 12.8 17 Nordeste 40 Norte 0 -- -- 57
2019-06-11 14:00:00 10.8 8 Nordeste 27 Norte 0.2 -- -- 74
2019-06-11 13:00:00 10.1 7 Este 18 Nordeste 0 -- -- 72
2019-06-11 12:00:00 8.8 11 Este 15 Este 0 -- -- 84
2019-06-11 11:00:00 7 11 Este 15 Este 0.4 -- -- 93
2019-06-11 10:00:00 6.9 9 Este 16 Este 0 -- -- 89
2019-06-11 09:00:00 7 12 Nordeste 17 Nordeste 0 -- -- 85
2019-06-11 08:00:00 7.3 4 Nordeste 13 Nordeste 0 -- -- 82
2019-06-11 07:00:00 6.8 5 Nordeste 12 Nordeste 0 -- -- 83
2019-06-11 06:00:00 6.8 8 Nordeste 18 Este 0 -- -- 82
2019-06-11 05:00:00 7.5 11 Este 23 Nordeste 0 -- -- 77
2019-06-11 04:00:00 8.4 14 Nordeste 21 Nordeste 0 -- -- 74
2019-06-11 03:00:00 9.5 8 Nordeste 18 Este 0 -- -- 71
2019-06-11 02:00:00 10.4 14 Sudeste 28 Sudeste 0 -- -- 66
2019-06-11 01:00:00 10.9 20 Sudeste 31 Sudeste 0 -- -- 63
2019-06-11 00:00:00 11.9 22 Sudeste 28 Sudeste 0 -- -- 60
2019-06-10 23:00:00 13.3 5 Norte 20 Norte 0 -- -- 47
2019-06-10 22:00:00 14.2 11 Norte 27 Noroeste 0 -- -- 45
2019-06-10 21:00:00 15.6 21 Noroeste 31 Noroeste 0 -- -- 43
2019-06-10 20:00:00 17.9 21 Noroeste 40 Noroeste 0 -- -- 37
2019-06-10 19:00:00 18.9 25 Noroeste 40 Noroeste 0 -- -- 35
2019-06-10 18:00:00 18.1 24 Noroeste 50 Noroeste 0 -- -- 36
2019-06-10 17:00:00 19.1 30 Noroeste 45 Oeste 0 -- -- 32
2019-06-10 16:00:00 18 29 Noroeste 46 Noroeste 0 -- -- 36
2019-06-10 15:00:00 18.2 29 Noroeste 42 Noroeste 0 -- -- 33
2019-06-10 14:00:00 16.9 26 Noroeste 42 Oeste 0 -- -- 37
2019-06-10 13:00:00 16.1 29 Noroeste 44 Noroeste 0 -- -- 43
2019-06-10 12:00:00 15.5 23 Noroeste 35 Noroeste 0 -- -- 50
2019-06-10 11:00:00 13.4 24 Noroeste 32 Noroeste 0 -- -- 64
2019-06-10 10:00:00 11.5 17 Noroeste 29 Noroeste 0 -- -- 76
2019-06-10 09:00:00 9.4 14 Norte 22 Noroeste 0 -- -- 87
2019-06-10 08:00:00 8.1 12 Noroeste 19 Noroeste 0 -- -- 94
2019-06-10 07:00:00 7.3 2 Noroeste 8 Norte 0 -- -- 93
2019-06-10 06:00:00 7.1 0 Calma 6 Noroeste 0 -- -- 92
2019-06-10 05:00:00 8.1 0 Calma 4 Este 0 -- -- 88
2019-06-10 04:00:00 9.1 2 Este 5 Norte 0 -- -- 85
2019-06-10 03:00:00 9.2 3 Oeste 8 Nordeste 0 -- -- 84
2019-06-10 02:00:00 10.3 4 Norte 13 Este 0 -- -- 80
2019-06-10 01:00:00 11.4 9 Sudeste 13 Este 0 -- -- 77
2019-06-10 00:00:00 14 4 Sur 15 Este 0 -- -- 66
2019-06-09 23:00:00 16.4 11 Noroeste 19 Noroeste 0 -- -- 42
2019-06-09 22:00:00 17.5 8 Noroeste 18 Noroeste 0 -- -- 37
2019-06-09 21:00:00 19.6 9 Noroeste 22 Noroeste 0 -- -- 33
2019-06-09 20:00:00 20.6 12 Noroeste 21 Noroeste 0 -- -- 31
2019-06-09 19:00:00 21.4 12 Norte 24 Norte 0 -- -- 30
2019-06-09 18:00:00 21.7 12 Norte 23 Noroeste 0 -- -- 31
2019-06-09 17:00:00 21.5 13 Noroeste 28 Noroeste 0 -- -- 32
2019-06-09 16:00:00 22 8 Norte 25 Oeste 0 -- -- 30
2019-06-09 15:00:00 22.9 9 Oeste 27 Noroeste 0 -- -- 28
2019-06-09 14:00:00 22.2 13 Noroeste 25 Oeste 0 -- -- 33
2019-06-09 13:00:00 21 11 Noroeste 40 Oeste 0 -- -- 32
2019-06-09 12:00:00 19.9 17 Oeste 37 Sudoeste 0 -- -- 36
2019-06-09 11:00:00 18.6 18 Sudoeste 28 Sudoeste 0 -- -- 48
2019-06-09 10:00:00 17.1 18 Sudoeste 40 Sudoeste 0 -- -- 61
2019-06-09 09:00:00 15.4 28 Sudoeste 38 Sudoeste 0 -- -- 64
2019-06-09 08:00:00 13.8 27 Sudoeste 40 Sudoeste 0 -- -- 69
2019-06-09 07:00:00 13 30 Sur 38 Sur 0 -- -- 70
2019-06-09 06:00:00 13.5 28 Sur 37 Sur 0 -- -- 68
2019-06-09 05:00:00 14 19 Sur 33 Sudoeste 0 -- -- 66
2019-06-09 04:00:00 14.1 20 Sur 30 Sudoeste 0 -- -- 65
2019-06-09 03:00:00 15.2 23 Sudoeste 32 Sudoeste 0 -- -- 62
2019-06-09 02:00:00 14.6 18 Sur 34 Sudoeste 0 -- -- 63
2019-06-09 01:00:00 16.2 17 Sudoeste 22 Sudoeste 0 -- -- 58
2019-06-09 00:00:00 16.1 10 Sur 19 Sudeste 0 -- -- 59
2019-06-08 23:00:00 16.5 12 Sudeste 22 Sudeste 0 -- -- 57
2019-06-08 22:00:00 18.3 14 Sudeste 39 Sudeste 0 -- -- 52
2019-06-08 21:00:00 19.7 27 Sudeste 39 Sudeste 0 -- -- 48
2019-06-08 20:00:00 22.4 22 Sudeste 36 Sur 0 -- -- 40
2019-06-08 19:00:00 22.7 22 Sur 36 Sudoeste 0 -- -- 38
2019-06-08 18:00:00 22.7 24 Sudoeste 37 Sudoeste 0 -- -- 37
2019-06-08 17:00:00 22.7 26 Sudoeste 47 Sudoeste 0 -- -- 35
2019-06-08 16:00:00 23 23 Sur 39 Sur 0 -- -- 34
2019-06-08 15:00:00 21.5 22 Sur 36 Sudoeste 0 -- -- 37
2019-06-08 14:00:00 19.3 17 Sudeste 38 Sudeste 0 -- -- 43
2019-06-08 13:00:00 18.9 22 Este 35 Este 0 -- -- 42
2019-06-08 12:00:00 17.4 21 Sudeste 31 Este 0 -- -- 44
2019-06-08 11:00:00 16.1 18 Sudeste 30 Este 0 -- -- 46
2019-06-08 10:00:00 13.9 20 Sudeste 28 Sudeste 0 -- -- 52
2019-06-08 09:00:00 7.5 0 Calma 4 Este 0 -- -- 76
2019-06-08 08:00:00 3.9 0 Calma 4 Este 0 -- -- 85
2019-06-08 07:00:00 1.7 2 Sudeste 5 Oeste 0 -- -- 87
2019-06-08 06:00:00 2.1 0 Calma 5 Este 0 -- -- 85
2019-06-08 05:00:00 2.4 3 Oeste 6 Sudeste 0 -- -- 85
2019-06-08 04:00:00 3.5 0 Calma 6 Oeste 0 -- -- 80
2019-06-08 03:00:00 4.5 3 Oeste 5 Oeste 0 -- -- 76
2019-06-08 02:00:00 5.5 0 Calma 5 Sudeste 0 -- -- 71
2019-06-08 01:00:00 7.1 0 Calma 4 Este 0 -- -- 63
2019-06-08 00:00:00 8.4 3 Oeste 7 Oeste 0 -- -- 59
2019-06-07 23:00:00 10.5 5 Oeste 6 Oeste 0 -- -- 51
2019-06-07 22:00:00 12.4 2 Este 20 Noroeste 0 -- -- 44
2019-06-07 21:00:00 14.9 13 Noroeste 32 Noroeste 0 -- -- 37
2019-06-07 20:00:00 15.8 22 Noroeste 37 Noroeste 0 -- -- 35
2019-06-07 19:00:00 16.6 21 Noroeste 38 Noroeste 0 -- -- 33
2019-06-07 18:00:00 16.3 22 Noroeste 39 Noroeste 0 -- -- 36
2019-06-07 17:00:00 16.2 21 Noroeste 40 Noroeste 0 -- -- 40
2019-06-07 16:00:00 15.3 24 Noroeste 48 Oeste 0 -- -- 41
2019-06-07 15:00:00 14.3 28 Noroeste 47 Oeste 0 -- -- 42
2019-06-07 14:00:00 13.3 24 Noroeste 39 Oeste 0 -- -- 47
2019-06-07 13:00:00 11.9 29 Noroeste 51 Oeste 0 -- -- 50
2019-06-07 12:00:00 10.9 34 Oeste 51 Oeste 0 -- -- 56
2019-06-07 11:00:00 9.4 31 Noroeste 58 Oeste 0 -- -- 62
2019-06-07 10:00:00 8.2 38 Oeste 62 Oeste 0 -- -- 67
2019-06-07 09:00:00 7 32 Oeste 50 Oeste 0 -- -- 74
2019-06-07 08:00:00 6.5 21 Noroeste 43 Noroeste 0 -- -- 78
2019-06-07 07:00:00 6.1 17 Noroeste 42 Noroeste 0 -- -- 84
2019-06-07 06:00:00 6.2 35 Noroeste 58 Oeste 0.4 -- -- 82
2019-06-07 05:00:00 6.7 35 Noroeste 53 Noroeste 0 -- -- 81
2019-06-07 04:00:00 7.3 26 Noroeste 50 Oeste 0.8 -- -- 90
2019-06-07 03:00:00 9.3 28 Oeste 63 Sudoeste 0.6 -- -- 86
2019-06-07 02:00:00 13.5 43 Sudoeste 60 Sudoeste 0 -- -- 55
2019-06-07 01:00:00 14.7 27 Sudoeste 56 Sudoeste 0 -- -- 40
2019-06-07 00:00:00 15.6 38 Sudoeste 59 Sudoeste 0 -- -- 36
2019-06-06 23:00:00 16.1 38 Sudoeste 58 Sudoeste 0 -- -- 34
2019-06-06 22:00:00 17 35 Sudoeste 53 Sudoeste 0 -- -- 31
2019-06-06 21:00:00 18.3 36 Sudoeste 63 Sudoeste 0 -- -- 29
2019-06-06 20:00:00 19.4 40 Sudoeste 69 Sudoeste 0 -- -- 28
2019-06-06 19:00:00 19.9 42 Sudoeste 66 Sudoeste 0 -- -- 25
2019-06-06 18:00:00 20 41 Sudoeste 70 Sudoeste 0 -- -- 25
2019-06-06 17:00:00 19.6 36 Sudoeste 72 Sudoeste 0 -- -- 30
2019-06-06 16:00:00 18.7 41 Sudoeste 69 Sudoeste 0 -- -- 30
2019-06-06 15:00:00 18 43 Sudoeste 63 Sudoeste 0 -- -- 28
2019-06-06 14:00:00 17.4 33 Sudoeste 64 Sudoeste 0 -- -- 30
2019-06-06 13:00:00 15.9 41 Sudoeste 55 Sudoeste 0 -- -- 34
2019-06-06 12:00:00 15.1 32 Sudoeste 43 Sudoeste 0 -- -- 37
2019-06-06 11:00:00 14.1 22 Sur 34 Sudoeste 0 -- -- 49
2019-06-06 10:00:00 12.7 10 Sudeste 18 Este 0 -- -- 55
2019-06-06 09:00:00 10.2 3 Sudeste 6 Este 0 -- -- 72
2019-06-06 08:00:00 7.7 3 Este 5 Este 0 -- -- 87
2019-06-06 07:00:00 6.3 4 Sudeste 8 Este 0 -- -- 87
2019-06-06 06:00:00 7.3 4 Sudeste 5 Oeste 0 -- -- 75
2019-06-06 05:00:00 8.6 0 Calma 3 Norte 0 -- -- 66
2019-06-06 04:00:00 9.1 3 Noroeste 9 Norte 0 -- -- 63
2019-06-06 03:00:00 9.3 5 Norte 9 Norte 0 -- -- 61
2019-06-06 02:00:00 9.6 0 Calma 10 Oeste 0 -- -- 58
2019-06-06 01:00:00 9.8 6 Noroeste 11 Oeste 0 -- -- 56
2019-06-06 00:00:00 9.7 6 Oeste 18 Noroeste 0 -- -- 57
2019-06-05 23:00:00 10.2 9 Oeste 20 Oeste 0 -- -- 60
2019-06-05 22:00:00 13.2 14 Noroeste 20 Noroeste 0 -- -- 46
2019-06-05 21:00:00 14.1 15 Oeste 22 Oeste 0 -- -- 42
2019-06-05 20:00:00 14.7 16 Oeste 31 Oeste 0 -- -- 41
2019-06-05 19:00:00 15.2 19 Noroeste 44 Oeste 0 -- -- 38
2019-06-05 18:00:00 15.5 27 Noroeste 39 Oeste 0 -- -- 39
2019-06-05 17:00:00 15.5 30 Noroeste 48 Oeste 0 -- -- 41
2019-06-05 16:00:00 14.8 33 Noroeste 52 Noroeste 0 -- -- 47
2019-06-05 15:00:00 12.3 28 Noroeste 51 Noroeste 0 -- -- 52
2019-06-05 14:00:00 12 38 Noroeste 61 Noroeste 0 -- -- 62
2019-06-05 13:00:00 10.3 29 Noroeste 57 Noroeste 0 -- -- 77
2019-06-05 12:00:00 8.3 26 Noroeste 54 Noroeste 1 -- -- 89
2019-06-05 11:00:00 7.2 26 Noroeste 64 Noroeste 1.2 -- -- 89
2019-06-05 10:00:00 8.7 44 Noroeste 62 Noroeste 0 -- -- 83
2019-06-05 09:00:00 8.7 35 Oeste 54 Noroeste 0 -- -- 85
2019-06-05 08:00:00 8.8 27 Noroeste 46 Oeste 0 -- -- 88
2019-06-05 07:00:00 8.6 34 Noroeste 46 Noroeste 0.8 -- -- 87
2019-06-05 06:00:00 10.3 29 Noroeste 42 Noroeste 0.2 -- -- 76
2019-06-05 05:00:00 12.4 14 Noroeste 32 Oeste 0 -- -- 77
2019-06-05 04:00:00 13.1 4 Sur 9 Sudeste 0 -- -- 85
2019-06-05 03:00:00 13.4 0 Calma 19 Noroeste 5 -- -- 81
2019-06-05 02:00:00 14.6 14 Noroeste 21 Noroeste 0 -- -- 67
2019-06-05 01:00:00 15.4 10 Norte 23 Noroeste 0 -- -- 62
2019-06-05 00:00:00 15.7 15 Noroeste 20 Oeste 0 -- -- 60
2019-06-04 23:00:00 16.9 17 Noroeste 34 Noroeste 0 -- -- 53
2019-06-04 22:00:00 18.9 15 Noroeste 24 Noroeste 0 -- -- 47
2019-06-04 21:00:00 20.5 8 Oeste 24 Noroeste 0 -- -- 42
2019-06-04 20:00:00 22.4 17 Oeste 49 Sudoeste 0 -- -- 37
2019-06-04 19:00:00 24.7 30 Sudoeste 55 Sudoeste 0 -- -- 30
2019-06-04 18:00:00 25.4 34 Sudoeste 63 Oeste 0 -- -- 30
2019-06-04 17:00:00 25.2 33 Sudoeste 55 Sudoeste 0 -- -- 33
2019-06-04 16:00:00 25.1 36 Sudoeste 55 Sudoeste 0 -- -- 31
2019-06-04 15:00:00 24.7 37 Sudoeste 63 Sudoeste 0 -- -- 33
2019-06-04 14:00:00 23.9 38 Sudoeste 57 Sudoeste 0 -- -- 39
2019-06-04 13:00:00 23.2 35 Sudoeste 51 Sudoeste 0 -- -- 42
2019-06-04 12:00:00 22.1 32 Sudoeste 53 Sudoeste 0 -- -- 45
2019-06-04 11:00:00 21.1 33 Sudoeste 46 Sudoeste 0 -- -- 46
2019-06-04 10:00:00 19.9 34 Sudoeste 49 Sudoeste 0 -- -- 47
2019-06-04 09:00:00 18.4 30 Sudoeste 40 Sudoeste 0 -- -- 48
2019-06-04 08:00:00 16.6 19 Sur 29 Sudoeste 0 -- -- 42
2019-06-04 07:00:00 15.3 21 Sur 27 Sudoeste 0 -- -- 41
2019-06-04 06:00:00 15.9 19 Sur 25 Sur 0 -- -- 39
2019-06-04 05:00:00 11.1 5 Este 10 Este 0 -- -- 57
2019-06-04 04:00:00 11.8 5 Sudeste 11 Este 0 -- -- 56
2019-06-04 03:00:00 12.1 9 Sudeste 11 Sudeste 0 -- -- 56
2019-06-04 02:00:00 14.3 3 Sudeste 6 Sudeste 0 -- -- 47
2019-06-04 01:00:00 16.7 4 Sudeste 8 Sur 0 -- -- 38
2019-06-04 00:00:00 17.7 5 Sudeste 12 Noroeste 0 -- -- 35
2019-06-03 23:00:00 19.4 4 Noroeste 23 Oeste 0 -- -- 31
2019-06-03 22:00:00 22.9 13 Oeste 31 Sudoeste 0 -- -- 26
2019-06-03 21:00:00 26 25 Sudoeste 43 Sudoeste 0 -- -- 21
2019-06-03 20:00:00 27.7 30 Sudoeste 46 Sudoeste 0 -- -- 21
2019-06-03 19:00:00 28.4 22 Sudoeste 46 Sudoeste 0 -- -- 23
2019-06-03 18:00:00 28.3 27 Sudoeste 40 Oeste 0 -- -- 23
2019-06-03 17:00:00 27.7 27 Sudoeste 46 Oeste 0 -- -- 25
2019-06-03 16:00:00 28.5 25 Oeste 46 Sudoeste 0 -- -- 25
2019-06-03 15:00:00 28.4 28 Sudoeste 50 Sur 0 -- -- 27
2019-06-03 14:00:00 26.8 27 Sudoeste 46 Sudoeste 0 -- -- 29
2019-06-03 13:00:00 25.8 17 Sudoeste 28 Sudoeste 0 -- -- 33
2019-06-03 12:00:00 23.2 7 Sudoeste 15 Sudoeste 0 -- -- 41
2019-06-03 11:00:00 21.9 5 Sur 17 Sur 0 -- -- 41
2019-06-03 10:00:00 19.5 5 Sur 10 Sur 0 -- -- 54
2019-06-03 09:00:00 15.3 3 Sudeste 6 Sudeste 0 -- -- 73
2019-06-03 08:00:00 13.6 2 Oeste 5 Oeste 0 -- -- 73
2019-06-03 07:00:00 13.6 0 Calma 4 Sudeste 0 -- -- 69
2019-06-03 06:00:00 13 3 Noroeste 10 Sudeste 0 -- -- 76
2019-06-03 05:00:00 13.9 3 Este 8 Sudeste 0 -- -- 71
2019-06-03 04:00:00 15.2 3 Sudeste 9 Oeste 0 -- -- 65
2019-06-03 03:00:00 14.5 4 Sudeste 8 Sudeste 0 -- -- 75
2019-06-03 02:00:00 15.9 3 Sudoeste 8 Sudeste 0 -- -- 70
2019-06-03 01:00:00 17.5 4 Sudeste 10 Sudeste 0 -- -- 61
2019-06-03 00:00:00 20.6 2 Oeste 13 Norte 0 -- -- 45
2019-06-02 23:00:00 22 9 Norte 59 Oeste -- -- -- 38
2019-06-02 22:00:00 -- -- -- -- -- -- -- -- --
2019-06-02 21:00:00 26.6 20 Sudoeste 32 Sudoeste 0 -- -- 28
2019-06-02 20:00:00 27.6 11 Oeste 26 Oeste 0 -- -- 28
2019-06-02 19:00:00 28.5 13 Oeste 26 Sudoeste 0 -- -- 27
2019-06-02 18:00:00 28.8 18 Oeste -- -- -- -- -- 27
2019-06-02 17:00:00 28.4 9 Este 14 Sudeste 0 -- -- 30
2019-06-02 16:00:00 28.2 4 Oeste 17 Nordeste 0 -- -- 29
2019-06-02 15:00:00 28.4 6 Oeste 27 Oeste 0 -- -- 28
2019-06-02 14:00:00 28.2 5 Este 25 Oeste 0 -- -- 30
2019-06-02 13:00:00 26.6 12 Sudoeste 21 Oeste 0 -- -- 33
2019-06-02 12:00:00 24.9 8 Oeste 23 Sur 0 -- -- 34
2019-06-02 11:00:00 23.2 13 Sudoeste 23 Sudoeste 0 -- -- 37
2019-06-02 10:00:00 21.1 17 Sudoeste 27 Sudoeste 0 -- -- 40
2019-06-02 09:00:00 18.8 17 Sudoeste 27 Sudoeste 0 -- -- 45
2019-06-02 08:00:00 17 10 Sur 32 Sur 0 -- -- 47
2019-06-02 07:00:00 16 22 Sur 46 Sur 0 -- -- 48
2019-06-02 06:00:00 16 28 Sur 39 Sur 0 -- -- 49
2019-06-02 05:00:00 17 26 Sur 46 Sur 0 -- -- 46
2019-06-02 04:00:00 17 26 Sur 40 Sur 0 -- -- 45
2019-06-02 03:00:00 16.3 9 Sur 12 Sur 0 -- -- 50
2019-06-02 02:00:00 15.6 8 Sudeste 16 Sudeste 0 -- -- 56
2019-06-02 01:00:00 17.4 8 Sudeste 20 Sudeste 0 -- -- 51
2019-06-02 00:00:00 19.6 14 Sudeste 19 Sudeste 0 -- -- 44
2019-06-01 23:00:00 21.1 9 Este 21 Este 0 -- -- 39
2019-06-01 22:00:00 24.3 17 Sudoeste 21 Sudoeste 0 -- -- 33
2019-06-01 21:00:00 27.3 11 Sudoeste 23 Sur 0 -- -- 29
2019-06-01 20:00:00 28.1 8 Este 17 Este 0 -- -- 24
2019-06-01 19:00:00 28.7 6 Este 24 Nordeste 0 -- -- 23
2019-06-01 18:00:00 29.7 9 Norte 18 Noroeste 0 -- -- 22
2019-06-01 17:00:00 28.8 6 Nordeste 19 Nordeste 0 -- -- 25
2019-06-01 16:00:00 28.1 12 Este 26 Nordeste 0 -- -- 26
2019-06-01 15:00:00 27.9 11 Sudeste 39 Sudeste 0 -- -- 28
2019-06-01 14:00:00 27.3 8 Sudeste 18 Oeste 0 -- -- 29
2019-06-01 13:00:00 25.9 7 Sudoeste 17 Sudoeste 0 -- -- 31
2019-06-01 12:00:00 24.3 8 Oeste 21 Sur 0 -- -- 33
2019-06-01 11:00:00 22.2 16 Sudoeste 29 Sur 0 -- -- 43
2019-06-01 10:00:00 19.6 20 Sudoeste 30 Sur 0 -- -- 49
2019-06-01 09:00:00 17.7 13 Sudoeste 23 Sudoeste 0 -- -- 51
2019-06-01 08:00:00 15.5 8 Este 15 Este 0 -- -- 58
2019-06-01 07:00:00 12.7 6 Este 19 Sur 0 -- -- 66
2019-06-01 06:00:00 12.4 4 Este 15 Sur 0 -- -- 64
2019-06-01 05:00:00 11.5 3 Sudeste 9 Este 0 -- -- 63
2019-06-01 04:00:00 10.5 6 Este 10 Este 0 -- -- 64
2019-06-01 03:00:00 11.2 5 Sudeste 8 Sudeste 0 -- -- 61
2019-06-01 02:00:00 13.4 3 Sudeste 6 Sudeste 0 -- -- 56
2019-06-01 01:00:00 15.4 0 Calma 15 Sudoeste 0 -- -- 50
2019-06-01 00:00:00 17.2 5 Sur 14 Sudeste 0 -- -- 46
2019-05-31 23:00:00 18.4 10 Sudeste 23 Sudeste 0 -- -- 46
2019-05-31 22:00:00 21 14 Sudeste 29 Sudeste 0 -- -- 35
2019-05-31 21:00:00 24.9 12 Sudeste 17 Este 0 -- -- 26
2019-05-31 20:00:00 26.5 6 Este 20 Este 0 -- -- 23
2019-05-31 19:00:00 26.8 10 Sudeste 23 Sudeste 0 -- -- 22
2019-05-31 18:00:00 27.2 12 Nordeste 24 Este 0 -- -- 20
2019-05-31 17:00:00 27.4 9 Oeste 18 Este 0 -- -- 20
2019-05-31 16:00:00 27.1 6 Sur 20 Oeste 0 -- -- 20
2019-05-31 15:00:00 26.1 12 Sudeste 22 Sudeste 0 -- -- 21
2019-05-31 14:00:00 24.8 7 Sur 19 Sudeste 0 -- -- 23
2019-05-31 13:00:00 24 10 Sudeste 20 Este 0 -- -- 25
2019-05-31 12:00:00 23.2 8 Este 17 Este 0 -- -- 31
2019-05-31 11:00:00 22.1 6 Este 15 Sudeste 0 -- -- 39
2019-05-31 10:00:00 20 5 Este 11 Este 0 -- -- 46
2019-05-31 09:00:00 15.1 3 Sudeste 5 Sudeste 0 -- -- 61
2019-05-31 08:00:00 9.8 3 Sur 9 Sudeste 0 -- -- 74
2019-05-31 07:00:00 7.2 6 Sudeste 9 Sudeste 0 -- -- 77
2019-05-31 06:00:00 7.4 0 Calma 6 Sudeste 0 -- -- 76
2019-05-31 05:00:00 7.5 4 Sudeste 9 Sudeste 0 -- -- 76
2019-05-31 04:00:00 7.9 0 Calma 8 Sudeste 0 -- -- 70
2019-05-31 03:00:00 8.7 3 Sudeste 6 Sudeste 0 -- -- 67
2019-05-31 02:00:00 10.6 0 Calma 6 Este 0 -- -- 60
2019-05-31 01:00:00 12.7 4 Sudeste 7 Este 0 -- -- 53
2019-05-31 00:00:00 15.3 2 Noroeste 5 Oeste 0 -- -- 45
2019-05-30 23:00:00 17 2 Este 16 Este 0 -- -- 39
2019-05-30 22:00:00 18.6 14 Este 29 Este 0 -- -- 35
2019-05-30 21:00:00 21.9 22 Este 36 Este 0 -- -- 29
2019-05-30 20:00:00 23.4 28 Este 39 Este 0 -- -- 23
2019-05-30 19:00:00 24.2 27 Este 38 Este 0 -- -- 24
2019-05-30 18:00:00 24.8 19 Este 33 Este 0 -- -- 23
2019-05-30 17:00:00 25.4 17 Nordeste 35 Norte 0 -- -- 23
2019-05-30 16:00:00 25 14 Nordeste 33 Nordeste 0 -- -- 25
2019-05-30 15:00:00 24.1 12 Este 29 Nordeste 0 -- -- 28
2019-05-30 14:00:00 23.3 15 Nordeste 29 Nordeste 0 -- -- 31
2019-05-30 13:00:00 21.4 13 Nordeste 26 Nordeste 0 -- -- 37
2019-05-30 12:00:00 19.3 12 Nordeste 23 Nordeste 0 -- -- 44
2019-05-30 11:00:00 17.3 6 Norte 16 Norte 0 -- -- 49
2019-05-30 10:00:00 15.4 6 Nordeste 11 Nordeste 0 -- -- 55
2019-05-30 09:00:00 11.6 3 Norte 7 Nordeste 0 -- -- 67
2019-05-30 08:00:00 7.2 2 Oeste 6 Oeste 0 -- -- 82
2019-05-30 07:00:00 6.5 2 Sudoeste 5 Oeste 0 -- -- 78
2019-05-30 06:00:00 8.1 2 Sudeste 10 Oeste 0 -- -- 73
2019-05-30 05:00:00 9.7 3 Oeste 19 Norte 0 -- -- 68
2019-05-30 04:00:00 8.9 12 Norte 15 Norte 0 -- -- 70
2019-05-30 03:00:00 9.8 3 Norte 9 Norte 0 -- -- 66
2019-05-30 02:00:00 9.6 11 Este 25 Este 0 -- -- 67
2019-05-30 01:00:00 11.4 16 Este 23 Nordeste 0 -- -- 62
2019-05-30 00:00:00 11.3 12 Este 17 Este 0 -- -- 62
2019-05-29 23:00:00 12.4 9 Nordeste 31 Este 0 -- -- 58
2019-05-29 22:00:00 13.3 10 Nordeste 27 Nordeste 0 -- -- 54
2019-05-29 21:00:00 15.5 21 Este 34 Nordeste 0 -- -- 51
2019-05-29 20:00:00 17.8 21 Nordeste 32 Nordeste 0 -- -- 45
2019-05-29 19:00:00 19.2 21 Nordeste 33 Este 0 -- -- 43
2019-05-29 18:00:00 19.9 21 Nordeste 34 Nordeste 0 -- -- 41
2019-05-29 17:00:00 20.9 17 Norte 35 Nordeste 0 -- -- 40
2019-05-29 16:00:00 20.2 15 Norte 32 Norte 0 -- -- 41
2019-05-29 15:00:00 18.9 12 Nordeste 30 Nordeste 0 -- -- 41
2019-05-29 14:00:00 16.7 11 Noroeste 26 Norte 0 -- -- 50
2019-05-29 13:00:00 15.6 13 Norte 33 Noroeste 0 -- -- 51
2019-05-29 12:00:00 13 14 Norte 32 Nordeste 0 -- -- 58
2019-05-29 11:00:00 12.4 15 Norte 29 Norte 0 -- -- 59
2019-05-29 10:00:00 11.4 17 Norte 27 Noroeste 0 -- -- 62
2019-05-29 09:00:00 8.9 7 Norte 12 Norte 0 -- -- 70
2019-05-29 08:00:00 4.1 4 Noroeste 7 Noroeste 0 -- -- 87
2019-05-29 07:00:00 2.9 4 Oeste 6 Oeste 0 -- -- 87
2019-05-29 06:00:00 2.8 3 Oeste 12 Oeste 0 -- -- 87
2019-05-29 05:00:00 3 3 Oeste 7 Oeste 0 -- -- 86
2019-05-29 04:00:00 4 0 Calma 3 Este 0 -- -- 81
2019-05-29 03:00:00 5.2 0 Calma 3 Este 0 -- -- 77
2019-05-29 02:00:00 6.4 0 Calma 9 Este 0 -- -- 73
2019-05-29 01:00:00 6.7 5 Nordeste 11 Nordeste 0 -- -- 72
2019-05-29 00:00:00 7.7 9 Nordeste 21 Nordeste 0 -- -- 68
2019-05-28 23:00:00 9.2 17 Nordeste 28 Este 0 -- -- 60
2019-05-28 22:00:00 10.6 14 Nordeste 28 Nordeste 0 -- -- 60
2019-05-28 21:00:00 13.1 21 Nordeste 32 Norte 0 -- -- 54
2019-05-28 20:00:00 16.2 20 Norte 33 Norte 0 -- -- 39
2019-05-28 19:00:00 16.7 20 Nordeste 32 Nordeste 0 -- -- 44
2019-05-28 18:00:00 17.5 19 Nordeste 42 Este 0 -- -- 44
2019-05-28 17:00:00 19.1 22 Este 46 Noroeste 0 -- -- 41
2019-05-28 16:00:00 19.3 13 Norte 32 Noroeste 0 -- -- 34
2019-05-28 15:00:00 17.5 14 Noroeste 24 Norte 0 -- -- 43
2019-05-28 14:00:00 16.3 11 Nordeste 24 Norte 0 -- -- 47
2019-05-28 13:00:00 15 11 Nordeste 24 Nordeste 0 -- -- 50
2019-05-28 12:00:00 13.5 9 Nordeste 26 Nordeste 0 -- -- 57
2019-05-28 11:00:00 12 12 Norte 24 Nordeste 0 -- -- 59
2019-05-28 10:00:00 11.1 10 Nordeste 20 Norte 0 -- -- 62
2019-05-28 09:00:00 8.9 5 Este 9 Este 0 -- -- 70
2019-05-28 08:00:00 5 3 Sudeste 6 Sudeste 0 -- -- 90
2019-05-28 07:00:00 4.3 0 Calma 3 Oeste 0 -- -- 88
2019-05-28 06:00:00 5 2 Oeste 5 Oeste 0 -- -- 85
2019-05-28 05:00:00 6.1 0 Calma 8 Nordeste 0 -- -- 81
2019-05-28 04:00:00 6.7 5 Este 10 Este 0 -- -- 81
2019-05-28 03:00:00 7.7 5 Este 14 Este 0 -- -- 81
2019-05-28 02:00:00 8.2 7 Sudeste 13 Este 0 -- -- 83
2019-05-28 01:00:00 9.9 9 Sudeste 14 Nordeste 0 -- -- 79
2019-05-28 00:00:00 10.8 10 Este 14 Este 0 -- -- 76